Warkworth, United Kingdom
Current Conditions -  °F | °C
As of 5:50 AM on Sunday 21 Dec 2014 (Local Time) from EGQM Reporting Station
Broken Clouds Broken Clouds  
Wind Chill: 37°   Ceiling: 15000
Heat Index: 45°   Visibility: 6mi
Dew Point: 41°   Wind: 18mph
Humidity: 87%   Direction: 220°SW
Pressure: 30.03"   Gusts: 30mph
Location:  55.35°N, 1.6°W
Report Text: EGQM 210550Z AUTO 22016G26KT 9999 FEW039/// BKN150/// 07/05 Q1017
Loading
Personal Weather Stations






























Interactive Weather Map New forecast layout! Learn more

10-Day Weather Forecast

Advertisements
Track Severe Weather on mobile